createdAt,value
2022-12-03T00:00:18.011Z,20.38
2022-12-03T00:02:45.863Z,20.40
2022-12-03T00:05:14.933Z,20.32
2022-12-03T00:07:42.772Z,20.27
2022-12-03T00:10:10.573Z,20.28
2022-12-03T00:12:38.523Z,20.26
2022-12-03T00:15:06.419Z,20.25
2022-12-03T00:17:36.835Z,20.24
2022-12-03T00:20:05.190Z,20.26
2022-12-03T00:22:33.117Z,20.20
2022-12-03T00:25:00.988Z,20.24
2022-12-03T00:27:28.853Z,20.20
2022-12-03T00:30:02.559Z,20.11
2022-12-03T00:32:30.428Z,20.13
2022-12-03T00:34:58.215Z,20.09
2022-12-03T00:37:26.054Z,20.08
2022-12-03T00:39:53.938Z,20.03
2022-12-03T00:42:21.738Z,20.04
2022-12-03T00:44:49.752Z,20.04
2022-12-03T00:47:17.618Z,20.02
2022-12-03T00:49:45.376Z,20.00
2022-12-03T00:52:13.215Z,20.04
2022-12-03T00:54:41.075Z,20.00
2022-12-03T00:57:08.894Z,19.97
2022-12-03T00:59:36.704Z,20.01
2022-12-03T01:02:04.593Z,19.98
2022-12-03T01:04:33.930Z,19.96
2022-12-03T01:07:01.941Z,19.93
2022-12-03T01:09:29.812Z,19.91
2022-12-03T01:34:12.853Z,19.88
2022-12-03T01:49:15.103Z,19.79
2022-12-03T01:51:46.045Z,19.78
2022-12-03T01:54:13.931Z,19.77
2022-12-03T01:56:41.690Z,19.76
2022-12-03T01:59:09.583Z,19.74
2022-12-03T02:01:37.354Z,19.75
2022-12-03T02:04:06.779Z,19.73
2022-12-03T02:06:34.590Z,19.72
2022-12-03T02:09:02.890Z,19.73
2022-12-03T02:11:30.745Z,19.71
2022-12-03T02:13:58.577Z,19.72
2022-12-03T02:16:26.355Z,19.69
2022-12-03T02:18:54.235Z,19.61
2022-12-03T02:21:22.139Z,19.56
2022-12-03T02:23:49.885Z,19.51
2022-12-03T02:26:17.685Z,19.50
2022-12-03T02:28:45.442Z,19.51
2022-12-03T02:31:13.429Z,19.49
2022-12-03T02:33:43.608Z,19.54
2022-12-03T02:36:11.397Z,19.50
2022-12-03T02:38:39.211Z,19.53
2022-12-03T02:41:07.026Z,19.54
2022-12-03T02:43:33.761Z,19.51
2022-12-03T02:46:04.510Z,19.50
2022-12-03T02:48:32.476Z,19.49
2022-12-03T02:51:00.377Z,19.51
2022-12-03T02:53:28.248Z,19.51
2022-12-03T02:55:56.028Z,19.54
2022-12-03T02:58:24.039Z,19.49
2022-12-03T03:00:51.936Z,19.49
2022-12-03T03:03:19.774Z,19.51
2022-12-03T03:05:47.545Z,19.54
2022-12-03T03:08:15.408Z,19.53
2022-12-03T03:10:43.214Z,19.49
2022-12-03T03:13:11.013Z,19.51
2022-12-03T03:15:38.818Z,19.49
2022-12-03T03:18:06.667Z,19.49
2022-12-03T03:20:34.470Z,19.49
2022-12-03T03:23:02.268Z,19.48
2022-12-03T03:25:30.086Z,19.45
2022-12-03T03:27:57.910Z,19.45
2022-12-03T03:30:25.787Z,19.44
2022-12-03T03:32:53.744Z,19.42
2022-12-03T03:35:21.517Z,19.41
2022-12-03T03:37:49.310Z,19.40
2022-12-03T03:40:17.459Z,19.39
2022-12-03T03:42:45.290Z,19.36
2022-12-03T03:45:13.067Z,19.35
2022-12-03T03:47:40.900Z,19.34
2022-12-03T03:50:08.898Z,19.36
2022-12-03T03:52:36.822Z,19.34
2022-12-03T03:55:15.164Z,19.32
2022-12-03T03:57:43.035Z,19.31
2022-12-03T04:00:10.961Z,19.32
2022-12-03T04:02:38.754Z,19.32
2022-12-03T04:05:06.503Z,19.31
2022-12-03T04:07:34.290Z,19.34
2022-12-03T04:10:22.737Z,19.36
2022-12-03T04:12:55.618Z,19.28
2022-12-03T04:15:23.446Z,19.23
2022-12-03T04:18:11.825Z,19.29
2022-12-03T04:20:39.749Z,19.22
2022-12-03T04:23:06.521Z,19.24
2022-12-03T04:25:50.884Z,19.32
2022-12-03T04:28:36.195Z,19.27
2022-12-03T04:31:24.842Z,19.22
2022-12-03T04:34:10.161Z,19.23
2022-12-03T04:36:38.072Z,19.29
2022-12-03T04:39:05.984Z,19.30
2022-12-03T04:41:33.774Z,19.30
2022-12-03T04:44:19.143Z,19.23
2022-12-03T04:46:46.933Z,19.23
2022-12-03T04:49:14.736Z,19.23
2022-12-03T04:51:42.509Z,19.21
2022-12-03T04:54:10.320Z,19.23
2022-12-03T04:56:38.256Z,19.25
2022-12-03T04:59:10.022Z,19.23
2022-12-03T05:01:40.653Z,19.24
2022-12-03T05:04:08.451Z,19.22
2022-12-03T05:06:36.216Z,19.22
2022-12-03T05:09:04.000Z,19.20
2022-12-03T05:11:31.806Z,19.20
2022-12-03T05:13:59.599Z,19.19
2022-12-03T05:16:27.494Z,19.18
2022-12-03T05:18:55.371Z,19.15
2022-12-03T05:21:23.215Z,19.15
2022-12-03T05:23:51.043Z,19.14
2022-12-03T05:26:18.840Z,19.14
2022-12-03T05:28:46.643Z,19.13
2022-12-03T05:31:14.561Z,19.11
2022-12-03T05:33:44.382Z,19.08
2022-12-03T05:36:12.524Z,19.10
2022-12-03T05:38:40.309Z,19.08
2022-12-03T05:41:28.080Z,19.09
2022-12-03T05:43:54.889Z,19.06
2022-12-03T05:46:23.079Z,19.07
2022-12-03T05:48:50.960Z,19.06
2022-12-03T05:51:18.841Z,19.15
2022-12-03T05:53:46.746Z,22.83
2022-12-03T05:56:14.609Z,30.22
2022-12-03T05:58:42.417Z,36.39
2022-12-03T06:01:10.202Z,40.53
2022-12-03T06:03:38.107Z,43.00
2022-12-03T06:06:06.004Z,44.55
2022-12-03T06:08:33.853Z,45.56
2022-12-03T06:11:01.671Z,46.30
2022-12-03T06:13:29.447Z,46.78
2022-12-03T06:15:57.245Z,47.11
2022-12-03T06:18:25.176Z,47.36
2022-12-03T06:20:52.975Z,47.58
2022-12-03T06:23:20.841Z,47.68
2022-12-03T06:25:48.560Z,47.84
2022-12-03T06:28:16.350Z,47.90
2022-12-03T06:30:44.199Z,47.89
2022-12-03T06:33:12.032Z,47.75
2022-12-03T06:35:39.839Z,47.54
2022-12-03T06:38:07.594Z,47.16
2022-12-03T06:40:35.394Z,46.20
2022-12-03T06:43:03.230Z,44.99
2022-12-03T06:45:31.039Z,43.64
2022-12-03T06:47:58.825Z,42.23
2022-12-03T06:50:26.658Z,40.87
2022-12-03T06:52:54.472Z,39.49
2022-12-03T06:55:22.211Z,38.30
2022-12-03T06:57:50.007Z,37.07
2022-12-03T07:00:17.943Z,35.97
2022-12-03T07:02:45.833Z,34.98
2022-12-03T07:05:13.702Z,34.05
2022-12-03T07:07:41.522Z,33.15
2022-12-03T07:10:09.360Z,32.32
2022-12-03T07:12:37.963Z,31.60
2022-12-03T07:15:05.740Z,30.89
2022-12-03T07:17:33.485Z,30.21
2022-12-03T07:20:01.281Z,29.62
2022-12-03T07:22:29.083Z,29.05
2022-12-03T07:24:56.986Z,28.54
2022-12-03T07:27:24.851Z,28.11
2022-12-03T07:29:52.686Z,27.72
2022-12-03T07:32:20.624Z,27.68
2022-12-03T07:34:48.436Z,27.64
2022-12-03T07:37:21.443Z,27.39
2022-12-03T07:39:52.397Z,27.17
2022-12-03T07:42:20.413Z,26.96
2022-12-03T07:44:48.326Z,26.59
2022-12-03T07:47:16.115Z,26.31
2022-12-03T07:49:43.887Z,26.05
2022-12-03T07:52:11.722Z,25.85
2022-12-03T07:54:39.529Z,26.31
2022-12-03T07:57:07.320Z,27.80
2022-12-03T07:59:35.332Z,29.65
2022-12-03T08:02:03.481Z,31.82
2022-12-03T08:04:31.371Z,33.75
2022-12-03T08:06:59.366Z,35.33
2022-12-03T08:09:27.122Z,36.24
2022-12-03T08:11:54.910Z,36.11
2022-12-03T08:14:22.708Z,35.47
2022-12-03T08:16:50.489Z,34.64
2022-12-03T08:19:18.494Z,33.79
2022-12-03T08:21:46.319Z,32.87
2022-12-03T08:24:14.287Z,32.00
2022-12-03T08:26:42.073Z,31.18
2022-12-03T08:29:09.839Z,30.40
2022-12-03T08:31:37.680Z,29.67
2022-12-03T08:34:05.664Z,29.06
2022-12-03T08:36:33.446Z,29.06
2022-12-03T08:39:01.586Z,28.89
2022-12-03T08:41:55.453Z,28.52
2022-12-03T08:44:23.433Z,27.98
2022-12-03T08:46:51.371Z,27.57
2022-12-03T08:49:19.245Z,27.10
2022-12-03T08:51:47.207Z,26.65
2022-12-03T08:54:15.020Z,26.29
2022-12-03T08:56:43.676Z,25.97
2022-12-03T08:59:11.457Z,25.71
2022-12-03T09:01:39.393Z,25.40
2022-12-03T09:04:07.348Z,25.17
2022-12-03T09:06:35.207Z,24.92
2022-12-03T09:09:06.688Z,24.68
2022-12-03T09:11:34.764Z,24.42
2022-12-03T09:14:02.668Z,24.21
2022-12-03T09:16:30.770Z,24.05
2022-12-03T09:18:58.615Z,23.92
2022-12-03T09:21:26.450Z,23.75
2022-12-03T09:23:54.264Z,23.63
2022-12-03T09:26:22.051Z,23.50
2022-12-03T09:28:49.832Z,23.39
2022-12-03T09:31:17.661Z,23.22
2022-12-03T09:33:45.479Z,23.09
2022-12-03T09:36:13.316Z,23.00
2022-12-03T09:38:46.108Z,22.90
2022-12-03T09:41:15.567Z,22.77
2022-12-03T09:44:03.151Z,22.68
2022-12-03T09:46:31.334Z,22.60
2022-12-03T09:48:59.187Z,22.43
2022-12-03T09:51:27.079Z,22.34
2022-12-03T09:53:54.864Z,22.25
2022-12-03T09:56:22.646Z,22.22
2022-12-03T09:58:50.413Z,22.16
2022-12-03T10:01:18.279Z,22.02
2022-12-03T10:03:46.135Z,21.90
2022-12-03T10:06:13.914Z,21.88
2022-12-03T10:08:42.481Z,21.76
2022-12-03T10:11:10.283Z,21.64
2022-12-03T10:13:38.726Z,21.63
2022-12-03T10:16:06.545Z,21.58
2022-12-03T10:18:38.295Z,21.53
2022-12-03T10:21:09.168Z,21.51
2022-12-03T10:23:37.138Z,21.51
2022-12-03T10:26:04.973Z,21.45
2022-12-03T10:28:32.855Z,21.44
2022-12-03T10:31:00.723Z,21.44
2022-12-03T10:33:28.723Z,21.40
2022-12-03T10:35:56.559Z,21.36
2022-12-03T10:38:24.486Z,21.29
2022-12-03T10:40:52.499Z,21.28
2022-12-03T10:43:20.314Z,21.24
2022-12-03T10:45:48.126Z,21.17
2022-12-03T10:48:15.967Z,21.16
2022-12-03T10:50:43.758Z,21.12
2022-12-03T10:53:13.405Z,21.09
2022-12-03T10:55:41.378Z,21.07
2022-12-03T10:58:09.524Z,21.06
2022-12-03T11:00:37.286Z,21.04
2022-12-03T11:03:05.286Z,21.03
2022-12-03T11:05:33.077Z,20.98
2022-12-03T11:08:01.031Z,20.96
2022-12-03T11:10:28.926Z,20.94
2022-12-03T11:12:56.709Z,20.90
2022-12-03T11:15:24.578Z,20.89
2022-12-03T11:17:52.405Z,20.87
2022-12-03T11:20:22.910Z,20.81
2022-12-03T11:22:51.224Z,20.80
2022-12-03T11:25:19.136Z,20.78
2022-12-03T11:27:46.934Z,20.76
2022-12-03T11:30:15.124Z,20.70
2022-12-03T11:32:42.908Z,20.66
2022-12-03T11:35:10.992Z,20.62
2022-12-03T11:37:38.805Z,20.57
2022-12-03T11:40:07.065Z,20.53
2022-12-03T11:42:35.043Z,20.52
2022-12-03T11:45:02.945Z,20.48
2022-12-03T11:47:30.870Z,20.45
2022-12-03T11:49:58.709Z,20.41
2022-12-03T11:52:26.538Z,20.40
2022-12-03T11:54:54.459Z,20.38
2022-12-03T11:57:22.270Z,20.34
2022-12-03T11:59:50.042Z,20.33
2022-12-03T12:02:17.934Z,20.31
2022-12-03T12:04:47.822Z,20.30
2022-12-03T12:07:15.695Z,20.36
2022-12-03T12:09:43.536Z,20.33
2022-12-03T12:12:11.279Z,20.33
2022-12-03T12:14:39.161Z,20.33
2022-12-03T12:17:06.902Z,20.31
2022-12-03T12:19:34.708Z,20.33
2022-12-03T12:22:02.459Z,20.37
2022-12-03T12:24:30.245Z,20.37
2022-12-03T12:26:58.188Z,20.37
2022-12-03T12:29:26.180Z,20.37
2022-12-03T12:31:54.448Z,20.39
2022-12-03T12:34:22.498Z,20.35
2022-12-03T12:36:50.321Z,20.30
2022-12-03T12:39:18.132Z,20.33
2022-12-03T12:41:46.203Z,20.32
2022-12-03T12:44:14.510Z,20.35
2022-12-03T12:46:49.422Z,23.24
2022-12-03T12:49:20.637Z,31.81
2022-12-03T12:51:49.137Z,38.10
2022-12-03T12:54:17.065Z,41.60
2022-12-03T12:56:44.942Z,43.68
2022-12-03T12:59:12.711Z,45.04
2022-12-03T13:01:40.723Z,45.98
2022-12-03T13:04:08.743Z,46.66
2022-12-03T13:06:36.573Z,47.06
2022-12-03T13:09:04.375Z,47.35
2022-12-03T13:11:32.130Z,47.49
2022-12-03T13:13:59.954Z,47.64
2022-12-03T13:16:27.957Z,47.61
2022-12-03T13:18:55.939Z,47.22
2022-12-03T13:21:23.751Z,46.68
2022-12-03T13:23:51.625Z,46.06
2022-12-03T13:26:34.117Z,45.02
2022-12-03T13:29:04.105Z,43.57
2022-12-03T13:31:32.019Z,42.21
2022-12-03T13:33:59.817Z,40.99
2022-12-03T13:36:27.880Z,39.66
2022-12-03T13:38:55.708Z,38.43
2022-12-03T13:41:40.972Z,37.21
2022-12-03T13:44:08.740Z,35.94
2022-12-03T13:46:36.873Z,34.96
2022-12-03T13:49:04.638Z,34.10
2022-12-03T13:51:32.406Z,33.29
2022-12-03T13:54:00.373Z,32.49
2022-12-03T13:56:28.384Z,31.77
2022-12-03T13:58:56.110Z,31.12
2022-12-03T14:01:24.577Z,30.55
2022-12-03T14:03:52.623Z,29.91
2022-12-03T14:06:20.449Z,29.37
2022-12-03T14:08:48.188Z,28.87
2022-12-03T14:11:30.037Z,28.36
2022-12-03T14:13:57.813Z,28.14
2022-12-03T14:16:25.825Z,28.16
2022-12-03T14:18:53.809Z,27.97
2022-12-03T14:21:21.645Z,27.66
2022-12-03T14:23:49.451Z,28.00
2022-12-03T14:26:17.245Z,28.92
2022-12-03T14:28:45.001Z,29.43
2022-12-03T14:31:12.918Z,29.83
2022-12-03T14:33:40.754Z,30.05
2022-12-03T14:36:08.490Z,30.13
2022-12-03T14:38:36.234Z,30.06
2022-12-03T14:41:04.138Z,30.08
2022-12-03T14:43:31.944Z,30.14
2022-12-03T14:45:59.749Z,30.17
2022-12-03T14:48:28.227Z,30.28
2022-12-03T14:50:56.041Z,30.48
2022-12-03T14:53:27.444Z,30.80
2022-12-03T14:55:59.139Z,31.30
2022-12-03T14:58:26.919Z,31.73
2022-12-03T15:00:54.706Z,32.18
2022-12-03T15:03:22.775Z,32.62
2022-12-03T15:05:50.627Z,32.83
2022-12-03T15:08:18.652Z,32.79
2022-12-03T15:10:46.518Z,32.52
2022-12-03T15:13:14.463Z,32.01
2022-12-03T15:15:42.392Z,31.43
2022-12-03T15:18:10.188Z,30.85
2022-12-03T15:20:39.065Z,30.24
2022-12-03T15:23:11.174Z,29.72
2022-12-03T15:25:41.785Z,29.15
2022-12-03T15:28:09.854Z,28.67
2022-12-03T15:30:38.162Z,28.21
2022-12-03T15:33:20.973Z,27.73
2022-12-03T15:35:48.930Z,27.34
2022-12-03T15:38:16.856Z,26.94
2022-12-03T15:40:44.655Z,26.59
2022-12-03T15:43:12.497Z,26.27
2022-12-03T15:45:40.544Z,25.97
2022-12-03T15:48:08.461Z,25.66
2022-12-03T15:50:40.088Z,25.29
2022-12-03T15:53:08.218Z,24.97
2022-12-03T15:55:36.019Z,24.67
2022-12-03T15:58:03.783Z,24.40
2022-12-03T16:00:31.571Z,24.28
2022-12-03T16:02:59.457Z,24.17
2022-12-03T16:05:27.269Z,24.04
2022-12-03T16:07:55.117Z,24.13
2022-12-03T16:10:22.924Z,27.11
2022-12-03T16:12:50.699Z,33.03
2022-12-03T16:15:23.570Z,37.54
2022-12-03T16:17:54.457Z,39.81
2022-12-03T16:20:22.227Z,40.65
2022-12-03T16:22:49.945Z,41.87
2022-12-03T16:25:17.741Z,43.43
2022-12-03T16:27:45.524Z,44.54
2022-12-03T16:30:13.300Z,45.11
2022-12-03T16:32:41.814Z,45.10
2022-12-03T16:35:09.569Z,44.57
2022-12-03T16:37:37.310Z,43.64
2022-12-03T16:40:05.209Z,42.57
2022-12-03T16:42:32.977Z,41.41
2022-12-03T16:45:23.023Z,40.26
2022-12-03T16:47:50.772Z,38.84
2022-12-03T16:50:25.926Z,37.72
2022-12-03T16:52:55.272Z,36.53
2022-12-03T16:55:23.039Z,35.52
2022-12-03T16:57:50.900Z,34.60
2022-12-03T17:00:21.781Z,33.69
2022-12-03T17:02:50.098Z,32.81
2022-12-03T17:05:17.986Z,32.03
2022-12-03T17:07:46.065Z,31.28
2022-12-03T17:10:14.093Z,30.60
2022-12-03T17:13:08.146Z,29.97
2022-12-03T17:15:30.033Z,29.25
2022-12-03T17:17:58.146Z,28.71
2022-12-03T17:20:26.152Z,28.21
2022-12-03T17:22:53.940Z,27.74
2022-12-03T17:25:21.748Z,27.27
2022-12-03T17:27:49.530Z,26.91
2022-12-03T17:30:17.336Z,26.95
2022-12-03T17:32:45.246Z,26.93
2022-12-03T17:35:13.024Z,26.74
2022-12-03T17:37:41.624Z,26.55
2022-12-03T17:40:09.570Z,26.25
2022-12-03T17:42:37.364Z,25.93
2022-12-03T17:45:05.279Z,25.72
2022-12-03T17:47:33.080Z,25.44
2022-12-03T17:50:00.838Z,25.12
2022-12-03T17:52:28.814Z,24.97
2022-12-03T17:55:17.752Z,24.77
2022-12-03T17:57:44.612Z,26.22
2022-12-03T18:00:12.616Z,31.09
2022-12-03T18:02:40.415Z,36.50
2022-12-03T18:05:08.301Z,39.81
2022-12-03T18:07:36.487Z,41.43
2022-12-03T18:10:04.363Z,42.55
2022-12-03T18:12:32.238Z,43.83
2022-12-03T18:15:00.075Z,44.81
2022-12-03T18:17:27.820Z,45.29
2022-12-03T18:19:56.189Z,45.08
2022-12-03T18:22:24.281Z,44.37
2022-12-03T18:24:52.262Z,43.35
2022-12-03T18:27:20.167Z,42.15
2022-12-03T18:29:48.220Z,40.97
2022-12-03T18:32:28.300Z,39.75
2022-12-03T18:34:57.373Z,38.40
2022-12-03T18:37:25.174Z,37.23
2022-12-03T18:39:53.577Z,36.15
2022-12-03T18:42:21.578Z,35.13
2022-12-03T18:44:50.127Z,34.14
2022-12-03T18:47:18.076Z,33.26
2022-12-03T18:49:45.888Z,32.42
2022-12-03T18:52:13.662Z,31.67
2022-12-03T18:54:41.576Z,30.93
2022-12-03T18:57:09.506Z,30.27
2022-12-03T18:59:37.838Z,29.65
2022-12-03T19:02:05.855Z,29.06
2022-12-03T19:04:33.701Z,28.55
2022-12-03T19:07:03.475Z,28.07
2022-12-03T19:09:31.532Z,27.60
2022-12-03T19:11:59.394Z,27.20
2022-12-03T19:14:27.184Z,27.04
2022-12-03T19:16:55.167Z,27.08
2022-12-03T19:19:27.211Z,26.96
2022-12-03T19:21:55.050Z,26.74
2022-12-03T19:24:24.821Z,26.54
2022-12-03T19:26:55.437Z,26.47
2022-12-03T19:29:23.247Z,27.20
2022-12-03T19:31:51.334Z,29.30
2022-12-03T19:34:19.248Z,30.45
2022-12-03T19:36:47.622Z,30.64
2022-12-03T19:39:15.400Z,30.31
2022-12-03T19:41:43.842Z,29.82
2022-12-03T19:44:11.587Z,29.22
2022-12-03T19:46:39.391Z,28.65
2022-12-03T19:49:07.294Z,28.15
2022-12-03T19:51:35.922Z,27.67
2022-12-03T19:54:03.956Z,27.26
2022-12-03T19:56:31.845Z,26.87
2022-12-03T19:58:59.630Z,26.49
2022-12-03T20:01:27.425Z,26.15
2022-12-03T20:03:55.382Z,25.92
2022-12-03T20:06:24.590Z,25.60
2022-12-03T20:08:52.657Z,25.35
2022-12-03T20:11:20.785Z,25.00
2022-12-03T20:13:48.779Z,24.74
2022-12-03T20:16:16.586Z,24.46
2022-12-03T20:18:44.527Z,24.33
2022-12-03T20:21:12.309Z,24.09
2022-12-03T20:23:40.112Z,23.87
2022-12-03T20:26:08.067Z,23.69
2022-12-03T20:28:35.915Z,23.56
2022-12-03T20:31:03.731Z,23.51
2022-12-03T20:33:31.765Z,23.42
2022-12-03T20:35:59.934Z,23.32
2022-12-03T20:38:27.971Z,23.17
2022-12-03T20:40:55.753Z,23.11
2022-12-03T20:43:23.594Z,23.05
2022-12-03T20:45:51.429Z,22.93
2022-12-03T20:48:19.462Z,22.91
2022-12-03T20:50:47.238Z,22.83
2022-12-03T20:53:24.672Z,22.78
2022-12-03T20:55:52.967Z,22.68
2022-12-03T20:58:20.886Z,22.62
2022-12-03T21:00:48.781Z,22.52
2022-12-03T21:03:16.697Z,22.44
2022-12-03T21:05:45.339Z,22.38
2022-12-03T21:08:14.377Z,22.32
2022-12-03T21:10:45.934Z,22.22
2022-12-03T21:13:13.735Z,22.12
2022-12-03T21:15:41.578Z,22.10
2022-12-03T21:18:10.257Z,22.06
2022-12-03T21:20:38.126Z,21.99
2022-12-03T21:23:06.009Z,21.94
2022-12-03T21:25:34.004Z,21.90
2022-12-03T21:28:01.845Z,21.87
2022-12-03T21:30:29.645Z,21.79
2022-12-03T21:32:57.464Z,21.73
2022-12-03T21:35:25.379Z,21.69
2022-12-03T21:37:53.193Z,21.68
2022-12-03T21:40:21.132Z,21.61
2022-12-03T21:42:49.137Z,21.59
2022-12-03T21:45:17.015Z,21.56
2022-12-03T21:47:44.938Z,21.53
2022-12-03T21:50:12.781Z,21.48
2022-12-03T21:52:40.586Z,21.44
2022-12-03T21:55:08.397Z,21.39
2022-12-03T21:57:36.169Z,21.38
2022-12-03T22:00:04.134Z,21.29
2022-12-03T22:02:32.175Z,21.22
2022-12-03T22:05:00.005Z,21.16
2022-12-03T22:07:27.951Z,21.11
2022-12-03T22:09:56.009Z,21.08
2022-12-03T22:12:24.074Z,21.07
2022-12-03T22:14:52.047Z,21.00
2022-12-03T22:17:20.001Z,20.94
2022-12-03T22:19:47.780Z,20.94
2022-12-03T22:22:15.784Z,20.91
2022-12-03T22:24:45.660Z,20.88
2022-12-03T22:27:13.684Z,20.91
2022-12-03T22:29:41.444Z,20.87
2022-12-03T22:32:09.291Z,20.82
2022-12-03T22:34:37.994Z,20.82
2022-12-03T22:37:06.022Z,20.84
2022-12-03T22:39:33.813Z,20.82
2022-12-03T22:42:01.670Z,20.81
2022-12-03T22:44:29.615Z,20.77
2022-12-03T22:46:57.513Z,20.73
2022-12-03T22:49:25.374Z,20.70
2022-12-03T22:51:53.119Z,20.71
2022-12-03T22:54:23.882Z,20.73
2022-12-03T22:56:52.100Z,20.68
2022-12-03T22:59:19.960Z,20.64
2022-12-03T23:01:47.781Z,20.62
2022-12-03T23:04:15.564Z,20.63
2022-12-03T23:06:43.756Z,20.60
2022-12-03T23:09:11.619Z,20.61
2022-12-03T23:11:39.487Z,20.62
2022-12-03T23:14:07.472Z,20.60
2022-12-03T23:16:35.342Z,20.62
2022-12-03T23:19:03.399Z,20.62
2022-12-03T23:21:31.347Z,20.60
2022-12-03T23:23:59.203Z,20.60
2022-12-03T23:26:27.145Z,20.60
2022-12-03T23:28:54.891Z,20.59
2022-12-03T23:31:23.074Z,20.61
2022-12-03T23:33:50.912Z,20.63
2022-12-03T23:36:18.786Z,20.62
2022-12-03T23:38:46.564Z,20.63
2022-12-03T23:41:14.382Z,20.63
2022-12-03T23:43:42.155Z,20.63
2022-12-03T23:46:10.194Z,20.60
2022-12-03T23:48:38.013Z,20.61
2022-12-03T23:51:05.801Z,20.66
2022-12-03T23:53:33.672Z,20.66
2022-12-03T23:56:01.790Z,20.60
2022-12-03T23:58:29.914Z,20.58
